sensor_id;sensor_type;location;lat;lon;timestamp;temperature;humidity
57857;DHT22;43683;48.650;9.290;2022-10-26T00:01:28;11.00;91.50
57857;DHT22;43683;48.650;9.290;2022-10-26T00:03:55;11.00;91.50
57857;DHT22;43683;48.650;9.290;2022-10-26T00:06:23;11.00;91.50
57857;DHT22;43683;48.650;9.290;2022-10-26T00:08:50;11.00;91.50
57857;DHT22;43683;48.650;9.290;2022-10-26T00:11:17;11.00;91.60
57857;DHT22;43683;48.650;9.290;2022-10-26T00:13:44;11.00;91.60
57857;DHT22;43683;48.650;9.290;2022-10-26T00:16:13;10.90;91.60
57857;DHT22;43683;48.650;9.290;2022-10-26T00:18:39;11.00;91.60
57857;DHT22;43683;48.650;9.290;2022-10-26T00:21:06;11.00;91.70
57857;DHT22;43683;48.650;9.290;2022-10-26T00:23:32;10.90;91.70
57857;DHT22;43683;48.650;9.290;2022-10-26T00:25:58;11.00;91.60
57857;DHT22;43683;48.650;9.290;2022-10-26T00:28:24;11.00;91.60
57857;DHT22;43683;48.650;9.290;2022-10-26T00:30:50;11.00;91.60
57857;DHT22;43683;48.650;9.290;2022-10-26T00:33:16;11.10;91.60
57857;DHT22;43683;48.650;9.290;2022-10-26T00:35:42;11.10;91.50
57857;DHT22;43683;48.650;9.290;2022-10-26T00:38:08;11.10;91.50
57857;DHT22;43683;48.650;9.290;2022-10-26T00:40:33;11.10;91.50
57857;DHT22;43683;48.650;9.290;2022-10-26T00:42:59;11.20;91.50
57857;DHT22;43683;48.650;9.290;2022-10-26T00:45:29;11.20;91.40
57857;DHT22;43683;48.650;9.290;2022-10-26T00:48:02;11.30;91.40
57857;DHT22;43683;48.650;9.290;2022-10-26T00:50:38;11.40;91.40
57857;DHT22;43683;48.650;9.290;2022-10-26T00:53:06;11.40;91.30
57857;DHT22;43683;48.650;9.290;2022-10-26T00:55:38;11.40;91.30
57857;DHT22;43683;48.650;9.290;2022-10-26T00:58:07;11.50;91.60
57857;DHT22;43683;48.650;9.290;2022-10-26T01:00:34;11.50;91.30
57857;DHT22;43683;48.650;9.290;2022-10-26T01:03:04;11.50;91.30
57857;DHT22;43683;48.650;9.290;2022-10-26T01:05:31;11.50;91.30
57857;DHT22;43683;48.650;9.290;2022-10-26T01:07:58;11.60;91.30
57857;DHT22;43683;48.650;9.290;2022-10-26T01:10:24;11.60;91.20
57857;DHT22;43683;48.650;9.290;2022-10-26T01:12:51;11.60;91.20
57857;DHT22;43683;48.650;9.290;2022-10-26T01:15:20;11.50;91.30
57857;DHT22;43683;48.650;9.290;2022-10-26T01:18:07;11.50;91.40
57857;DHT22;43683;48.650;9.290;2022-10-26T01:20:42;11.50;91.60
57857;DHT22;43683;48.650;9.290;2022-10-26T01:25:58;11.40;91.60
57857;DHT22;43683;48.650;9.290;2022-10-26T01:31:08;11.40;91.70
57857;DHT22;43683;48.650;9.290;2022-10-26T01:33:47;11.40;91.70
57857;DHT22;43683;48.650;9.290;2022-10-26T01:36:19;11.40;91.70
57857;DHT22;43683;48.650;9.290;2022-10-26T01:41:30;11.40;91.80
57857;DHT22;43683;48.650;9.290;2022-10-26T01:44:00;11.50;91.90
57857;DHT22;43683;48.650;9.290;2022-10-26T01:46:31;11.50;91.80
57857;DHT22;43683;48.650;9.290;2022-10-26T01:49:01;11.50;91.80
57857;DHT22;43683;48.650;9.290;2022-10-26T01:51:29;11.50;91.80
57857;DHT22;43683;48.650;9.290;2022-10-26T01:53:57;11.50;91.80
57857;DHT22;43683;48.650;9.290;2022-10-26T01:56:29;11.50;91.90
57857;DHT22;43683;48.650;9.290;2022-10-26T02:01:46;11.50;92.00
57857;DHT22;43683;48.650;9.290;2022-10-26T02:09:45;11.40;92.00
57857;DHT22;43683;48.650;9.290;2022-10-26T02:12:22;11.40;92.00
57857;DHT22;43683;48.650;9.290;2022-10-26T02:15:21;11.40;92.10
57857;DHT22;43683;48.650;9.290;2022-10-26T02:17:56;11.40;92.10
57857;DHT22;43683;48.650;9.290;2022-10-26T02:20:29;11.40;92.10
57857;DHT22;43683;48.650;9.290;2022-10-26T02:23:01;11.40;92.20
57857;DHT22;43683;48.650;9.290;2022-10-26T02:25:31;11.30;92.10
57857;DHT22;43683;48.650;9.290;2022-10-26T02:28:09;11.30;92.10
57857;DHT22;43683;48.650;9.290;2022-10-26T02:30:37;11.30;92.20
57857;DHT22;43683;48.650;9.290;2022-10-26T02:33:04;11.30;92.20
57857;DHT22;43683;48.650;9.290;2022-10-26T02:35:34;11.20;92.20
57857;DHT22;43683;48.650;9.290;2022-10-26T02:38:03;11.20;92.30
57857;DHT22;43683;48.650;9.290;2022-10-26T02:40:31;11.10;92.40
57857;DHT22;43683;48.650;9.290;2022-10-26T02:43:00;11.00;92.50
57857;DHT22;43683;48.650;9.290;2022-10-26T02:45:30;11.00;92.50
57857;DHT22;43683;48.650;9.290;2022-10-26T02:47:57;10.90;92.80
57857;DHT22;43683;48.650;9.290;2022-10-26T02:50:29;10.90;92.50
57857;DHT22;43683;48.650;9.290;2022-10-26T02:53:00;10.90;92.50
57857;DHT22;43683;48.650;9.290;2022-10-26T02:55:29;11.00;92.50
57857;DHT22;43683;48.650;9.290;2022-10-26T02:58:04;11.00;92.50
57857;DHT22;43683;48.650;9.290;2022-10-26T03:00:31;11.00;92.50
57857;DHT22;43683;48.650;9.290;2022-10-26T03:02:57;11.00;92.40
57857;DHT22;43683;48.650;9.290;2022-10-26T03:05:28;11.00;92.40
57857;DHT22;43683;48.650;9.290;2022-10-26T03:07:56;11.10;92.40
57857;DHT22;43683;48.650;9.290;2022-10-26T03:10:22;11.10;92.40
57857;DHT22;43683;48.650;9.290;2022-10-26T03:12:47;11.10;92.30
57857;DHT22;43683;48.650;9.290;2022-10-26T03:15:13;11.10;92.30
57857;DHT22;43683;48.650;9.290;2022-10-26T03:17:39;11.10;92.30
57857;DHT22;43683;48.650;9.290;2022-10-26T03:20:05;11.10;92.30
57857;DHT22;43683;48.650;9.290;2022-10-26T03:22:31;11.10;92.30
57857;DHT22;43683;48.650;9.290;2022-10-26T03:24:57;11.10;92.30
57857;DHT22;43683;48.650;9.290;2022-10-26T03:27:22;11.10;92.30
57857;DHT22;43683;48.650;9.290;2022-10-26T03:29:48;11.20;92.30
57857;DHT22;43683;48.650;9.290;2022-10-26T03:32:13;11.20;92.30
57857;DHT22;43683;48.650;9.290;2022-10-26T03:34:39;11.20;92.30
57857;DHT22;43683;48.650;9.290;2022-10-26T03:37:04;11.20;92.30
57857;DHT22;43683;48.650;9.290;2022-10-26T03:39:30;11.20;92.30
57857;DHT22;43683;48.650;9.290;2022-10-26T03:41:55;11.20;92.30
57857;DHT22;43683;48.650;9.290;2022-10-26T03:44:21;11.20;92.30
57857;DHT22;43683;48.650;9.290;2022-10-26T03:46:47;11.20;92.60
57857;DHT22;43683;48.650;9.290;2022-10-26T03:49:13;11.20;92.30
57857;DHT22;43683;48.650;9.290;2022-10-26T03:51:38;11.30;92.30
57857;DHT22;43683;48.650;9.290;2022-10-26T03:54:04;11.30;92.30
57857;DHT22;43683;48.650;9.290;2022-10-26T03:56:30;11.40;92.30
57857;DHT22;43683;48.650;9.290;2022-10-26T03:58:55;11.40;92.30
57857;DHT22;43683;48.650;9.290;2022-10-26T04:01:21;11.50;92.20
57857;DHT22;43683;48.650;9.290;2022-10-26T04:03:46;11.50;92.20
57857;DHT22;43683;48.650;9.290;2022-10-26T04:06:12;11.50;92.20
57857;DHT22;43683;48.650;9.290;2022-10-26T04:08:37;11.60;92.20
57857;DHT22;43683;48.650;9.290;2022-10-26T04:11:03;11.60;92.30
57857;DHT22;43683;48.650;9.290;2022-10-26T04:13:29;11.60;92.50
57857;DHT22;43683;48.650;9.290;2022-10-26T04:15:54;11.60;92.20
57857;DHT22;43683;48.650;9.290;2022-10-26T04:18:20;11.50;92.30
57857;DHT22;43683;48.650;9.290;2022-10-26T04:20:45;11.50;92.40
57857;DHT22;43683;48.650;9.290;2022-10-26T04:23:13;11.50;92.50
57857;DHT22;43683;48.650;9.290;2022-10-26T04:25:39;11.40;92.60
57857;DHT22;43683;48.650;9.290;2022-10-26T04:28:06;11.40;92.70
57857;DHT22;43683;48.650;9.290;2022-10-26T04:30:33;11.40;92.80
57857;DHT22;43683;48.650;9.290;2022-10-26T04:32:59;11.40;92.80
57857;DHT22;43683;48.650;9.290;2022-10-26T04:35:25;11.40;92.80
57857;DHT22;43683;48.650;9.290;2022-10-26T04:37:50;11.40;92.70
57857;DHT22;43683;48.650;9.290;2022-10-26T04:40:16;11.40;92.80
57857;DHT22;43683;48.650;9.290;2022-10-26T04:42:45;11.40;92.80
57857;DHT22;43683;48.650;9.290;2022-10-26T04:45:13;11.30;92.90
57857;DHT22;43683;48.650;9.290;2022-10-26T04:47:39;11.30;93.00
57857;DHT22;43683;48.650;9.290;2022-10-26T04:50:05;11.30;93.00
57857;DHT22;43683;48.650;9.290;2022-10-26T04:52:31;11.30;93.00
57857;DHT22;43683;48.650;9.290;2022-10-26T04:54:57;11.30;93.00
57857;DHT22;43683;48.650;9.290;2022-10-26T04:57:22;11.30;93.10
57857;DHT22;43683;48.650;9.290;2022-10-26T04:59:48;11.30;93.10
57857;DHT22;43683;48.650;9.290;2022-10-26T05:02:13;11.30;93.10
57857;DHT22;43683;48.650;9.290;2022-10-26T05:04:39;11.30;93.20
57857;DHT22;43683;48.650;9.290;2022-10-26T05:07:05;11.30;93.20
57857;DHT22;43683;48.650;9.290;2022-10-26T05:09:30;11.30;93.20
57857;DHT22;43683;48.650;9.290;2022-10-26T05:11:56;11.20;93.20
57857;DHT22;43683;48.650;9.290;2022-10-26T05:14:21;11.10;93.30
57857;DHT22;43683;48.650;9.290;2022-10-26T05:16:47;11.10;93.50
57857;DHT22;43683;48.650;9.290;2022-10-26T05:19:14;11.00;93.50
57857;DHT22;43683;48.650;9.290;2022-10-26T05:21:40;11.10;93.40
57857;DHT22;43683;48.650;9.290;2022-10-26T05:24:05;11.10;93.40
57857;DHT22;43683;48.650;9.290;2022-10-26T05:26:31;11.20;93.40
57857;DHT22;43683;48.650;9.290;2022-10-26T05:28:56;11.20;93.30
57857;DHT22;43683;48.650;9.290;2022-10-26T05:31:22;11.30;93.30
57857;DHT22;43683;48.650;9.290;2022-10-26T05:33:48;11.30;93.30
57857;DHT22;43683;48.650;9.290;2022-10-26T05:36:16;11.30;93.20
57857;DHT22;43683;48.650;9.290;2022-10-26T05:38:41;11.30;93.20
57857;DHT22;43683;48.650;9.290;2022-10-26T05:41:07;11.40;93.20
57857;DHT22;43683;48.650;9.290;2022-10-26T05:43:32;11.40;93.20
57857;DHT22;43683;48.650;9.290;2022-10-26T05:45:58;11.50;93.10
57857;DHT22;43683;48.650;9.290;2022-10-26T05:48:23;11.50;93.10
57857;DHT22;43683;48.650;9.290;2022-10-26T05:50:49;11.50;93.00
57857;DHT22;43683;48.650;9.290;2022-10-26T05:53:15;11.50;93.00
57857;DHT22;43683;48.650;9.290;2022-10-26T05:55:40;11.60;93.00
57857;DHT22;43683;48.650;9.290;2022-10-26T05:58:11;11.60;93.00
57857;DHT22;43683;48.650;9.290;2022-10-26T06:00:43;11.70;93.00
57857;DHT22;43683;48.650;9.290;2022-10-26T06:03:21;11.70;92.90
57857;DHT22;43683;48.650;9.290;2022-10-26T06:05:55;11.70;92.90
57857;DHT22;43683;48.650;9.290;2022-10-26T06:08:23;11.80;92.90
57857;DHT22;43683;48.650;9.290;2022-10-26T06:10:50;11.80;92.90
57857;DHT22;43683;48.650;9.290;2022-10-26T06:13:16;11.80;92.90
57857;DHT22;43683;48.650;9.290;2022-10-26T06:18:38;11.90;92.90
57857;DHT22;43683;48.650;9.290;2022-10-26T06:27:18;12.00;92.80
57857;DHT22;43683;48.650;9.290;2022-10-26T06:30:02;12.10;92.70
57857;DHT22;43683;48.650;9.290;2022-10-26T06:32:29;12.10;92.70
57857;DHT22;43683;48.650;9.290;2022-10-26T06:37:43;12.30;92.60
57857;DHT22;43683;48.650;9.290;2022-10-26T06:40:11;12.30;92.50
57857;DHT22;43683;48.650;9.290;2022-10-26T06:42:38;12.40;92.50
57857;DHT22;43683;48.650;9.290;2022-10-26T06:45:04;12.40;92.50
57857;DHT22;43683;48.650;9.290;2022-10-26T06:53:16;12.60;92.40
57857;DHT22;43683;48.650;9.290;2022-10-26T06:55:45;12.70;92.40
57857;DHT22;43683;48.650;9.290;2022-10-26T06:58:18;12.70;92.30
57857;DHT22;43683;48.650;9.290;2022-10-26T07:00:46;12.80;92.40
57857;DHT22;43683;48.650;9.290;2022-10-26T07:03:13;12.80;92.30
57857;DHT22;43683;48.650;9.290;2022-10-26T07:05:38;12.90;92.30
57857;DHT22;43683;48.650;9.290;2022-10-26T07:08:04;13.00;92.30
57857;DHT22;43683;48.650;9.290;2022-10-26T07:10:30;13.00;92.30
57857;DHT22;43683;48.650;9.290;2022-10-26T07:12:56;13.00;92.40
57857;DHT22;43683;48.650;9.290;2022-10-26T07:15:22;13.00;92.40
57857;DHT22;43683;48.650;9.290;2022-10-26T07:17:48;13.10;92.40
57857;DHT22;43683;48.650;9.290;2022-10-26T07:20:18;13.20;92.40
57857;DHT22;43683;48.650;9.290;2022-10-26T07:22:49;13.20;92.40
57857;DHT22;43683;48.650;9.290;2022-10-26T07:25:15;13.20;92.40
57857;DHT22;43683;48.650;9.290;2022-10-26T07:27:41;13.20;92.40
57857;DHT22;43683;48.650;9.290;2022-10-26T07:30:07;13.30;92.40
57857;DHT22;43683;48.650;9.290;2022-10-26T07:32:32;13.30;92.40
57857;DHT22;43683;48.650;9.290;2022-10-26T07:34:58;13.30;92.40
57857;DHT22;43683;48.650;9.290;2022-10-26T07:37:23;13.30;92.50
57857;DHT22;43683;48.650;9.290;2022-10-26T07:39:49;13.20;92.50
57857;DHT22;43683;48.650;9.290;2022-10-26T07:42:15;13.20;92.50
57857;DHT22;43683;48.650;9.290;2022-10-26T07:44:40;13.20;92.40
57857;DHT22;43683;48.650;9.290;2022-10-26T07:47:06;13.30;92.40
57857;DHT22;43683;48.650;9.290;2022-10-26T07:49:31;13.30;92.40
57857;DHT22;43683;48.650;9.290;2022-10-26T07:51:57;13.30;92.30
57857;DHT22;43683;48.650;9.290;2022-10-26T07:54:22;13.40;92.60
57857;DHT22;43683;48.650;9.290;2022-10-26T07:56:48;13.60;92.20
57857;DHT22;43683;48.650;9.290;2022-10-26T07:59:14;13.70;92.10
57857;DHT22;43683;48.650;9.290;2022-10-26T08:01:41;13.90;91.90
57857;DHT22;43683;48.650;9.290;2022-10-26T08:04:07;14.00;91.70
57857;DHT22;43683;48.650;9.290;2022-10-26T08:06:32;14.20;91.60
57857;DHT22;43683;48.650;9.290;2022-10-26T08:08:58;14.20;91.60
57857;DHT22;43683;48.650;9.290;2022-10-26T08:11:23;14.30;91.50
57857;DHT22;43683;48.650;9.290;2022-10-26T08:13:53;14.40;91.50
57857;DHT22;43683;48.650;9.290;2022-10-26T08:16:18;14.60;91.40
57857;DHT22;43683;48.650;9.290;2022-10-26T08:18:47;14.60;91.40
57857;DHT22;43683;48.650;9.290;2022-10-26T08:21:13;14.70;91.40
57857;DHT22;43683;48.650;9.290;2022-10-26T08:23:39;14.80;91.30
57857;DHT22;43683;48.650;9.290;2022-10-26T08:26:04;14.90;91.10
57857;DHT22;43683;48.650;9.290;2022-10-26T08:28:30;15.00;91.00
57857;DHT22;43683;48.650;9.290;2022-10-26T08:30:56;15.10;90.90
57857;DHT22;43683;48.650;9.290;2022-10-26T08:33:22;15.10;90.90
57857;DHT22;43683;48.650;9.290;2022-10-26T08:35:53;15.10;90.90
57857;DHT22;43683;48.650;9.290;2022-10-26T08:38:19;15.20;90.90
57857;DHT22;43683;48.650;9.290;2022-10-26T08:40:44;15.20;90.90
57857;DHT22;43683;48.650;9.290;2022-10-26T08:46:04;15.30;90.90
57857;DHT22;43683;48.650;9.290;2022-10-26T08:48:37;15.30;90.90
57857;DHT22;43683;48.650;9.290;2022-10-26T08:51:17;15.30;90.80
57857;DHT22;43683;48.650;9.290;2022-10-26T08:56:44;15.60;90.60
57857;DHT22;43683;48.650;9.290;2022-10-26T09:02:11;15.80;90.40
57857;DHT22;43683;48.650;9.290;2022-10-26T09:04:37;15.90;90.20
57857;DHT22;43683;48.650;9.290;2022-10-26T09:07:20;16.10;90.10
57857;DHT22;43683;48.650;9.290;2022-10-26T09:10:07;16.20;90.00
57857;DHT22;43683;48.650;9.290;2022-10-26T09:27:10;16.70;88.60
57857;DHT22;43683;48.650;9.290;2022-10-26T09:29:13;16.90;88.20
57857;DHT22;43683;48.650;9.290;2022-10-26T09:31:44;17.30;88.10
57857;DHT22;43683;48.650;9.290;2022-10-26T09:34:38;18.00;87.40
57857;DHT22;43683;48.650;9.290;2022-10-26T09:37:16;18.70;86.70
57857;DHT22;43683;48.650;9.290;2022-10-26T09:39:51;19.00;86.30
57857;DHT22;43683;48.650;9.290;2022-10-26T09:45:44;18.40;87.70
57857;DHT22;43683;48.650;9.290;2022-10-26T09:48:57;18.90;88.30
57857;DHT22;43683;48.650;9.290;2022-10-26T09:51:03;19.20;88.00
57857;DHT22;43683;48.650;9.290;2022-10-26T09:53:30;19.20;88.00
57857;DHT22;43683;48.650;9.290;2022-10-26T09:56:16;19.00;88.10
57857;DHT22;43683;48.650;9.290;2022-10-26T09:59:01;19.10;87.30
57857;DHT22;43683;48.650;9.290;2022-10-26T10:01:33;19.40;87.00
57857;DHT22;43683;48.650;9.290;2022-10-26T10:04:13;19.50;86.20
57857;DHT22;43683;48.650;9.290;2022-10-26T10:09:27;19.90;84.00
57857;DHT22;43683;48.650;9.290;2022-10-26T10:12:00;19.80;83.30
57857;DHT22;43683;48.650;9.290;2022-10-26T10:14:29;19.80;82.40
57857;DHT22;43683;48.650;9.290;2022-10-26T10:16:59;19.90;81.60
57857;DHT22;43683;48.650;9.290;2022-10-26T10:19:33;19.80;80.80
57857;DHT22;43683;48.650;9.290;2022-10-26T10:24:55;19.90;80.10
57857;DHT22;43683;48.650;9.290;2022-10-26T10:27:22;20.00;79.30
57857;DHT22;43683;48.650;9.290;2022-10-26T10:29:50;20.00;79.30
57857;DHT22;43683;48.650;9.290;2022-10-26T10:32:24;20.00;78.80
57857;DHT22;43683;48.650;9.290;2022-10-26T10:34:53;20.00;78.40
57857;DHT22;43683;48.650;9.290;2022-10-26T10:39:48;20.00;78.60
57857;DHT22;43683;48.650;9.290;2022-10-26T10:42:20;20.30;78.70
57857;DHT22;43683;48.650;9.290;2022-10-26T10:44:51;20.90;78.10
57857;DHT22;43683;48.650;9.290;2022-10-26T10:47:26;21.20;77.30
57857;DHT22;43683;48.650;9.290;2022-10-26T10:49:55;21.40;76.80
57857;DHT22;43683;48.650;9.290;2022-10-26T10:52:30;21.80;76.50
57857;DHT22;43683;48.650;9.290;2022-10-26T10:55:14;22.20;76.10
57857;DHT22;43683;48.650;9.290;2022-10-26T11:00:26;22.30;74.40
57857;DHT22;43683;48.650;9.290;2022-10-26T11:08:25;21.70;74.30
57857;DHT22;43683;48.650;9.290;2022-10-26T11:13:37;21.50;73.90
57857;DHT22;43683;48.650;9.290;2022-10-26T11:16:10;21.40;73.70
57857;DHT22;43683;48.650;9.290;2022-10-26T11:18:41;21.40;73.60
57857;DHT22;43683;48.650;9.290;2022-10-26T11:23:48;21.70;72.20
57857;DHT22;43683;48.650;9.290;2022-10-26T11:26:32;21.60;72.00
57857;DHT22;43683;48.650;9.290;2022-10-26T11:29:05;21.50;72.30
57857;DHT22;43683;48.650;9.290;2022-10-26T11:31:40;21.40;72.40
57857;DHT22;43683;48.650;9.290;2022-10-26T11:34:28;21.30;72.40
57857;DHT22;43683;48.650;9.290;2022-10-26T11:37:03;21.30;72.10
57857;DHT22;43683;48.650;9.290;2022-10-26T11:42:08;21.20;71.20
57857;DHT22;43683;48.650;9.290;2022-10-26T11:44:45;21.10;71.00
57857;DHT22;43683;48.650;9.290;2022-10-26T11:47:18;21.10;70.90
57857;DHT22;43683;48.650;9.290;2022-10-26T11:49:51;21.20;70.90
57857;DHT22;43683;48.650;9.290;2022-10-26T11:52:28;21.20;70.70
57857;DHT22;43683;48.650;9.290;2022-10-26T11:54:57;21.20;70.40
57857;DHT22;43683;48.650;9.290;2022-10-26T11:57:25;21.40;70.40
57857;DHT22;43683;48.650;9.290;2022-10-26T12:00:12;21.60;69.90
57857;DHT22;43683;48.650;9.290;2022-10-26T12:02:44;21.90;69.30
57857;DHT22;43683;48.650;9.290;2022-10-26T12:07:59;22.80;68.00
57857;DHT22;43683;48.650;9.290;2022-10-26T12:10:31;22.90;67.90
57857;DHT22;43683;48.650;9.290;2022-10-26T12:16:20;23.70;66.80
57857;DHT22;43683;48.650;9.290;2022-10-26T12:19:33;23.40;67.10
57857;DHT22;43683;48.650;9.290;2022-10-26T12:21:37;23.20;67.30
57857;DHT22;43683;48.650;9.290;2022-10-26T12:29:35;23.10;66.80
57857;DHT22;43683;48.650;9.290;2022-10-26T12:34:58;23.00;66.60
57857;DHT22;43683;48.650;9.290;2022-10-26T12:37:33;23.00;66.70
57857;DHT22;43683;48.650;9.290;2022-10-26T12:40:38;23.10;66.10
57857;DHT22;43683;48.650;9.290;2022-10-26T12:45:40;22.80;65.80
57857;DHT22;43683;48.650;9.290;2022-10-26T12:48:23;22.70;66.00
57857;DHT22;43683;48.650;9.290;2022-10-26T12:50:50;22.60;65.70
57857;DHT22;43683;48.650;9.290;2022-10-26T12:53:19;22.50;65.90
57857;DHT22;43683;48.650;9.290;2022-10-26T12:58:49;22.50;66.10
57857;DHT22;43683;48.650;9.290;2022-10-26T13:01:30;22.30;65.80
57857;DHT22;43683;48.650;9.290;2022-10-26T13:04:23;22.30;66.10
57857;DHT22;43683;48.650;9.290;2022-10-26T13:10:14;22.60;65.30
57857;DHT22;43683;48.650;9.290;2022-10-26T13:12:46;22.70;65.10
57857;DHT22;43683;48.650;9.290;2022-10-26T13:15:32;22.90;64.90
57857;DHT22;43683;48.650;9.290;2022-10-26T13:18:08;23.00;64.60
57857;DHT22;43683;48.650;9.290;2022-10-26T13:20:36;23.60;64.10
57857;DHT22;43683;48.650;9.290;2022-10-26T13:23:22;24.40;63.40
57857;DHT22;43683;48.650;9.290;2022-10-26T13:26:22;25.00;62.10
57857;DHT22;43683;48.650;9.290;2022-10-26T13:33:50;25.00;61.00
57857;DHT22;43683;48.650;9.290;2022-10-26T13:36:31;25.00;61.40
57857;DHT22;43683;48.650;9.290;2022-10-26T13:38:59;25.00;60.70
57857;DHT22;43683;48.650;9.290;2022-10-26T13:41:33;25.00;61.20
57857;DHT22;43683;48.650;9.290;2022-10-26T13:44:04;24.80;60.90
57857;DHT22;43683;48.650;9.290;2022-10-26T13:46:34;24.50;61.30
57857;DHT22;43683;48.650;9.290;2022-10-26T13:49:06;24.40;61.20
57857;DHT22;43683;48.650;9.290;2022-10-26T13:51:40;24.40;60.90
57857;DHT22;43683;48.650;9.290;2022-10-26T13:57:02;24.20;60.40
57857;DHT22;43683;48.650;9.290;2022-10-26T13:59:30;24.10;60.50
57857;DHT22;43683;48.650;9.290;2022-10-26T14:02:28;24.20;60.80
57857;DHT22;43683;48.650;9.290;2022-10-26T14:05:02;24.30;60.20
57857;DHT22;43683;48.650;9.290;2022-10-26T14:07:43;24.50;60.30
57857;DHT22;43683;48.650;9.290;2022-10-26T14:10:29;24.60;59.70
57857;DHT22;43683;48.650;9.290;2022-10-26T14:12:55;24.70;59.60
57857;DHT22;43683;48.650;9.290;2022-10-26T14:15:27;24.80;59.90
57857;DHT22;43683;48.650;9.290;2022-10-26T14:17:55;24.70;59.60
57857;DHT22;43683;48.650;9.290;2022-10-26T14:20:23;24.60;59.90
57857;DHT22;43683;48.650;9.290;2022-10-26T14:22:50;24.60;59.70
57857;DHT22;43683;48.650;9.290;2022-10-26T14:25:34;24.70;59.30
57857;DHT22;43683;48.650;9.290;2022-10-26T14:28:00;24.90;58.50
57857;DHT22;43683;48.650;9.290;2022-10-26T14:30:31;24.80;58.80
57857;DHT22;43683;48.650;9.290;2022-10-26T14:32:58;24.80;58.70
57857;DHT22;43683;48.650;9.290;2022-10-26T14:35:30;24.80;58.80
57857;DHT22;43683;48.650;9.290;2022-10-26T14:38:04;24.60;58.50
57857;DHT22;43683;48.650;9.290;2022-10-26T14:40:33;24.00;58.60
57857;DHT22;43683;48.650;9.290;2022-10-26T14:43:01;23.60;59.50
57857;DHT22;43683;48.650;9.290;2022-10-26T14:47:53;23.70;59.50
57857;DHT22;43683;48.650;9.290;2022-10-26T14:50:19;23.50;59.10
57857;DHT22;43683;48.650;9.290;2022-10-26T14:52:51;23.00;59.80
57857;DHT22;43683;48.650;9.290;2022-10-26T14:55:18;22.80;59.90
57857;DHT22;43683;48.650;9.290;2022-10-26T14:57:49;22.60;60.10
57857;DHT22;43683;48.650;9.290;2022-10-26T15:00:21;22.50;60.20
57857;DHT22;43683;48.650;9.290;2022-10-26T15:02:49;22.40;60.50
57857;DHT22;43683;48.650;9.290;2022-10-26T15:07:50;21.70;60.70
57857;DHT22;43683;48.650;9.290;2022-10-26T15:15:33;20.80;62.00
57857;DHT22;43683;48.650;9.290;2022-10-26T15:17:58;20.50;62.40
57857;DHT22;43683;48.650;9.290;2022-10-26T15:20:26;20.30;62.80
57857;DHT22;43683;48.650;9.290;2022-10-26T15:23:02;20.10;63.20
57857;DHT22;43683;48.650;9.290;2022-10-26T15:25:29;19.90;63.60
57857;DHT22;43683;48.650;9.290;2022-10-26T15:28:22;19.70;63.90
57857;DHT22;43683;48.650;9.290;2022-10-26T15:31:03;19.50;64.50
57857;DHT22;43683;48.650;9.290;2022-10-26T15:33:29;19.30;64.90
57857;DHT22;43683;48.650;9.290;2022-10-26T15:38:33;19.00;65.80
57857;DHT22;43683;48.650;9.290;2022-10-26T15:40:59;18.90;66.00
57857;DHT22;43683;48.650;9.290;2022-10-26T15:43:25;18.70;66.30
57857;DHT22;43683;48.650;9.290;2022-10-26T15:45:50;18.60;66.60
57857;DHT22;43683;48.650;9.290;2022-10-26T15:48:23;18.40;66.90
57857;DHT22;43683;48.650;9.290;2022-10-26T15:50:54;18.30;67.20
57857;DHT22;43683;48.650;9.290;2022-10-26T15:53:21;18.10;67.40
57857;DHT22;43683;48.650;9.290;2022-10-26T15:55:51;17.90;67.90
57857;DHT22;43683;48.650;9.290;2022-10-26T15:58:17;17.70;68.70
57857;DHT22;43683;48.650;9.290;2022-10-26T16:00:43;17.40;69.50
57857;DHT22;43683;48.650;9.290;2022-10-26T16:03:13;17.10;70.60
57857;DHT22;43683;48.650;9.290;2022-10-26T16:05:39;16.80;71.80
57857;DHT22;43683;48.650;9.290;2022-10-26T16:08:07;16.50;72.50
57857;DHT22;43683;48.650;9.290;2022-10-26T16:10:33;16.30;73.10
57857;DHT22;43683;48.650;9.290;2022-10-26T16:12:59;16.10;73.90
57857;DHT22;43683;48.650;9.290;2022-10-26T16:15:24;15.90;74.50
57857;DHT22;43683;48.650;9.290;2022-10-26T16:17:50;15.70;75.10
57857;DHT22;43683;48.650;9.290;2022-10-26T16:20:21;15.50;75.70
57857;DHT22;43683;48.650;9.290;2022-10-26T16:22:48;15.40;76.50
57857;DHT22;43683;48.650;9.290;2022-10-26T16:25:16;15.10;76.60
57857;DHT22;43683;48.650;9.290;2022-10-26T16:27:42;15.00;77.10
57857;DHT22;43683;48.650;9.290;2022-10-26T16:30:08;14.90;77.70
57857;DHT22;43683;48.650;9.290;2022-10-26T16:32:34;14.70;78.00
57857;DHT22;43683;48.650;9.290;2022-10-26T16:34:59;14.60;78.60
57857;DHT22;43683;48.650;9.290;2022-10-26T16:37:27;14.40;79.00
57857;DHT22;43683;48.650;9.290;2022-10-26T16:39:53;14.30;79.60
57857;DHT22;43683;48.650;9.290;2022-10-26T16:42:19;14.20;79.80
57857;DHT22;43683;48.650;9.290;2022-10-26T16:44:44;14.10;80.30
57857;DHT22;43683;48.650;9.290;2022-10-26T16:47:10;14.00;80.60
57857;DHT22;43683;48.650;9.290;2022-10-26T16:49:35;14.00;81.00
57857;DHT22;43683;48.650;9.290;2022-10-26T16:52:02;13.90;81.20
57857;DHT22;43683;48.650;9.290;2022-10-26T16:54:29;13.90;81.40
57857;DHT22;43683;48.650;9.290;2022-10-26T16:56:55;13.80;81.80
57857;DHT22;43683;48.650;9.290;2022-10-26T16:59:21;13.70;82.00
57857;DHT22;43683;48.650;9.290;2022-10-26T17:01:46;13.60;82.40
57857;DHT22;43683;48.650;9.290;2022-10-26T17:04:11;13.50;82.80
57857;DHT22;43683;48.650;9.290;2022-10-26T17:06:37;13.40;83.40
57857;DHT22;43683;48.650;9.290;2022-10-26T17:09:03;13.30;83.70
57857;DHT22;43683;48.650;9.290;2022-10-26T17:11:28;13.10;84.10
57857;DHT22;43683;48.650;9.290;2022-10-26T17:13:54;13.00;84.40
57857;DHT22;43683;48.650;9.290;2022-10-26T17:16:20;12.90;84.80
57857;DHT22;43683;48.650;9.290;2022-10-26T17:18:47;12.80;85.30
57857;DHT22;43683;48.650;9.290;2022-10-26T17:21:14;12.70;85.40
57857;DHT22;43683;48.650;9.290;2022-10-26T17:23:40;12.70;85.80
57857;DHT22;43683;48.650;9.290;2022-10-26T17:26:08;12.60;86.00
57857;DHT22;43683;48.650;9.290;2022-10-26T17:28:34;12.50;86.30
57857;DHT22;43683;48.650;9.290;2022-10-26T17:31:11;12.50;86.50
57857;DHT22;43683;48.650;9.290;2022-10-26T17:33:39;12.50;87.10
57857;DHT22;43683;48.650;9.290;2022-10-26T17:36:06;12.50;87.00
57857;DHT22;43683;48.650;9.290;2022-10-26T17:38:37;12.40;87.20
57857;DHT22;43683;48.650;9.290;2022-10-26T17:41:05;12.40;87.50
57857;DHT22;43683;48.650;9.290;2022-10-26T17:43:32;12.40;87.60
57857;DHT22;43683;48.650;9.290;2022-10-26T17:46:03;12.30;87.70
57857;DHT22;43683;48.650;9.290;2022-10-26T17:48:30;12.30;88.00
57857;DHT22;43683;48.650;9.290;2022-10-26T17:51:00;12.40;87.90
57857;DHT22;43683;48.650;9.290;2022-10-26T17:53:27;12.30;88.20